Time;durP1;ratioP1;P1;durP2;ratioP2;P2;SDS_P1;SDS_P2;PMS_P1;PMS_P2;Temp;Humidity;BMP_temperature;BMP_pressure;BME280_temperature;BME280_humidity;BME280_pressure;Samples;Min_cycle;Max_cycle;Signal;HPM_P1;HPM_P2
2021/11/28 00:01:40;;;;;;;42.90;9.73;;;6.90;93.50;;;;;;5010235;28;20035;-61
2021/11/28 00:04:05;;;;;;;37.72;10.65;;;6.90;93.40;;;;;;5011955;28;20641;-61
2021/11/28 00:06:32;;;;;;;43.35;10.43;;;6.90;93.50;;;;;;5043934;28;20033;-61
2021/11/28 00:09:44;;;;;;;34.63;10.32;;;6.90;93.60;;;;;;5012038;28;20032;-61
2021/11/28 00:11:57;;;;;;;34.60;9.75;;;6.90;93.50;;;;;;5018349;28;20098;-61
2021/11/28 00:14:23;;;;;;;33.53;9.07;;;6.90;93.50;;;;;;5014680;28;20043;-61
2021/11/28 00:16:48;;;;;;;33.00;9.60;;;6.90;93.60;;;;;;5010080;28;20121;-61
2021/11/28 00:19:14;;;;;;;32.15;9.60;;;6.90;93.50;;;;;;5010791;28;20037;-61
2021/11/28 00:21:39;;;;;;;26.95;8.90;;;6.90;93.50;;;;;;5010779;28;20028;-61
2021/11/28 00:24:05;;;;;;;30.25;9.60;;;6.90;93.50;;;;;;5012268;28;20033;-61
2021/11/28 00:26:30;;;;;;;24.92;9.13;;;6.90;93.50;;;;;;5027045;28;20029;-61
2021/11/28 00:28:57;;;;;;;28.40;9.05;;;6.90;93.50;;;;;;5009447;28;20081;-61
2021/11/28 00:31:23;;;;;;;27.90;9.00;;;6.90;93.50;;;;;;5027106;28;20043;-61
2021/11/28 00:33:48;;;;;;;31.77;9.10;;;6.80;93.50;;;;;;5011808;28;20062;-61
2021/11/28 00:36:14;;;;;;;39.80;9.88;;;6.80;93.50;;;;;;5027954;28;20051;-61
2021/11/28 00:38:39;;;;;;;33.55;9.38;;;6.80;93.50;;;;;;5032950;28;20044;-61
2021/11/28 00:41:05;;;;;;;25.80;9.02;;;6.80;93.50;;;;;;5014128;28;20051;-62
2021/11/28 00:43:30;;;;;;;32.20;8.75;;;6.80;93.50;;;;;;5013539;28;20035;-61
2021/11/28 00:45:56;;;;;;;29.23;8.85;;;6.80;93.50;;;;;;5032323;28;20034;-61
2021/11/28 00:48:24;;;;;;;22.77;8.23;;;6.80;93.40;;;;;;5029105;28;20112;-61
2021/11/28 00:51:00;;;;;;;33.65;8.68;;;6.80;93.40;;;;;;5031267;28;20036;-61
2021/11/28 00:53:26;;;;;;;23.75;8.27;;;6.80;93.40;;;;;;5014145;28;20043;-61
2021/11/28 00:55:51;;;;;;;31.13;9.32;;;6.80;93.40;;;;;;5014073;28;20025;-61
2021/11/28 00:58:17;;;;;;;22.63;8.02;;;6.80;93.40;;;;;;5029649;28;20657;-61
2021/11/28 01:00:43;;;;;;;23.02;8.35;;;6.80;93.40;;;;;;5014956;28;20106;-61
2021/11/28 01:03:08;;;;;;;23.55;8.13;;;6.80;93.40;;;;;;5028905;28;20040;-61
2021/11/28 01:05:34;;;;;;;25.80;8.38;;;6.80;93.50;;;;;;5029726;28;20044;-61
2021/11/28 01:07:59;;;;;;;24.50;7.65;;;6.80;93.40;;;;;;5013215;28;20028;-62
2021/11/28 01:10:25;;;;;;;26.70;8.40;;;6.80;93.40;;;;;;5046032;28;20066;-61
2021/11/28 01:12:51;;;;;;;19.35;8.23;;;6.80;93.40;;;;;;5030443;28;20032;-61
2021/11/28 01:15:16;;;;;;;30.35;8.38;;;6.70;93.40;;;;;;5029714;28;20029;-62
2021/11/28 01:17:43;;;;;;;22.15;6.85;;;6.80;93.50;;;;;;5012246;28;20020;-62
2021/11/28 01:20:09;;;;;;;21.15;8.23;;;6.80;93.50;;;;;;5046419;28;21883;-61
2021/11/28 01:22:34;;;;;;;20.13;7.90;;;6.70;93.40;;;;;;5013030;28;20581;-61
2021/11/28 01:25:00;;;;;;;24.23;8.60;;;6.70;93.40;;;;;;5014949;28;20066;-61
2021/11/28 01:27:25;;;;;;;21.92;7.60;;;6.70;93.40;;;;;;5030067;28;20034;-61
2021/11/28 01:29:51;;;;;;;18.38;7.47;;;6.70;93.40;;;;;;5014274;28;20116;-62
2021/11/28 01:32:17;;;;;;;20.83;8.25;;;6.70;93.40;;;;;;5012817;28;20060;-61
2021/11/28 01:34:42;;;;;;;25.52;7.75;;;6.70;93.40;;;;;;5013386;28;20048;-61
2021/11/28 01:37:08;;;;;;;24.30;8.63;;;6.70;93.40;;;;;;5013112;28;20048;-61
2021/11/28 01:39:33;;;;;;;23.23;7.60;;;6.70;93.40;;;;;;5028964;28;20489;-61
2021/11/28 01:41:59;;;;;;;24.40;6.97;;;6.70;93.40;;;;;;5046588;28;20130;-61
2021/11/28 01:44:24;;;;;;;17.55;6.78;;;6.70;93.40;;;;;;5012450;28;20204;-61
2021/11/28 01:46:50;;;;;;;16.23;7.20;;;6.70;93.40;;;;;;5027372;28;20186;-61
2021/11/28 01:49:16;;;;;;;25.15;6.97;;;6.70;93.40;;;;;;5027068;28;20071;-62
2021/11/28 01:51:41;;;;;;;19.20;7.32;;;6.60;93.40;;;;;;5029497;28;20048;-61
2021/11/28 01:54:12;;;;;;;18.45;6.40;;;6.60;93.40;;;;;;5014218;28;20123;-61
2021/11/28 01:56:37;;;;;;;15.77;7.22;;;6.60;93.30;;;;;;5030064;28;20028;-61
2021/11/28 01:59:03;;;;;;;21.10;7.15;;;6.70;93.40;;;;;;5012449;28;20036;-61
2021/11/28 02:01:29;;;;;;;19.75;6.53;;;6.60;93.40;;;;;;5026995;28;20529;-61
2021/11/28 02:03:54;;;;;;;22.27;6.90;;;6.70;93.40;;;;;;5028997;28;21436;-60
2021/11/28 02:06:20;;;;;;;20.85;6.78;;;6.60;93.40;;;;;;5013613;28;20028;-61
2021/11/28 02:08:46;;;;;;;23.45;7.45;;;6.60;93.40;;;;;;5028750;28;20028;-61
2021/11/28 02:11:13;;;;;;;20.05;6.82;;;6.60;93.40;;;;;;5026949;28;20042;-61
2021/11/28 02:13:39;;;;;;;17.70;7.03;;;6.60;93.70;;;;;;5044187;28;20037;-61
2021/11/28 02:16:04;;;;;;;20.23;7.13;;;6.60;93.40;;;;;;5013095;28;20067;-61
2021/11/28 02:18:30;;;;;;;21.70;7.13;;;6.60;93.40;;;;;;5027628;28;20031;-61
2021/11/28 02:20:57;;;;;;;21.13;7.15;;;6.60;93.40;;;;;;5010426;28;20088;-61
2021/11/28 02:23:23;;;;;;;22.63;7.25;;;6.60;93.30;;;;;;5029393;28;20035;-61
2021/11/28 02:25:49;;;;;;;25.20;6.63;;;6.60;93.40;;;;;;5028183;28;20598;-61
2021/11/28 02:28:15;;;;;;;22.35;6.90;;;6.50;93.30;;;;;;5028376;28;20127;-61
2021/11/28 02:30:40;;;;;;;20.98;6.35;;;6.60;93.40;;;;;;5013088;28;20123;-61
2021/11/28 02:33:06;;;;;;;22.75;6.72;;;6.50;93.40;;;;;;5013878;28;20037;-61
2021/11/28 02:35:34;;;;;;;21.95;6.38;;;6.50;93.30;;;;;;5028228;28;20660;-61
2021/11/28 02:38:03;;;;;;;14.93;6.88;;;6.60;93.30;;;;;;5012833;28;20114;-61
2021/11/28 02:40:28;;;;;;;16.00;6.90;;;6.60;93.30;;;;;;5024958;28;20045;-61
2021/11/28 02:42:54;;;;;;;16.35;6.85;;;6.50;93.30;;;;;;5044137;28;20032;-61
2021/11/28 02:45:20;;;;;;;16.20;7.28;;;6.60;93.40;;;;;;5011717;28;20451;-61
2021/11/28 02:47:46;;;;;;;16.05;6.28;;;6.50;93.30;;;;;;5045223;28;20028;-61
2021/11/28 02:50:13;;;;;;;18.00;6.97;;;6.50;93.40;;;;;;5028250;28;20020;-61
2021/11/28 02:52:39;;;;;;;18.92;6.90;;;6.50;93.40;;;;;;5027299;28;20029;-61
2021/11/28 02:55:05;;;;;;;15.82;5.88;;;6.50;93.40;;;;;;5011928;28;20422;-60
2021/11/28 02:57:31;;;;;;;14.43;6.90;;;6.50;93.30;;;;;;5029303;28;20048;-62
2021/11/28 02:59:56;;;;;;;19.10;6.90;;;6.50;93.40;;;;;;5011057;28;20020;-61
2021/11/28 03:02:22;;;;;;;21.38;6.90;;;6.50;93.70;;;;;;5011690;28;20111;-61
2021/11/28 03:04:47;;;;;;;13.15;6.80;;;6.50;93.40;;;;;;5027452;28;20677;-61
2021/11/28 03:07:16;;;;;;;17.83;6.88;;;6.50;93.40;;;;;;5010649;28;20531;-62
2021/11/28 03:09:42;;;;;;;16.45;7.20;;;6.50;93.30;;;;;;5024937;28;20100;-61
2021/11/28 03:12:07;;;;;;;18.80;6.18;;;6.40;93.30;;;;;;5029100;28;20599;-61
2021/11/28 03:14:33;;;;;;;18.63;7.03;;;6.50;93.40;;;;;;5011443;28;20058;-61
2021/11/28 03:16:58;;;;;;;16.42;7.05;;;6.50;93.40;;;;;;5042711;28;20195;-61
2021/11/28 03:19:24;;;;;;;21.77;6.47;;;6.50;93.40;;;;;;5025016;28;20027;-61
2021/11/28 03:21:50;;;;;;;16.52;6.25;;;6.50;93.40;;;;;;5026725;28;20165;-62
2021/11/28 03:24:15;;;;;;;12.13;6.10;;;6.50;93.30;;;;;;5027105;28;20060;-61
2021/11/28 03:26:41;;;;;;;15.63;6.13;;;6.40;93.30;;;;;;5026279;28;20039;-61
2021/11/28 03:29:13;;;;;;;12.15;5.88;;;6.40;93.30;;;;;;5027554;28;20100;-61
2021/11/28 03:31:40;;;;;;;11.45;6.03;;;6.40;93.30;;;;;;5051642;28;20151;-61
2021/11/28 03:34:06;;;;;;;15.32;6.68;;;6.40;93.30;;;;;;5027903;28;20151;-61
2021/11/28 03:36:33;;;;;;;17.55;6.20;;;6.40;93.60;;;;;;5027425;28;20052;-61
2021/11/28 03:38:58;;;;;;;17.45;6.97;;;6.40;93.30;;;;;;5011277;28;20017;-61
2021/11/28 03:41:25;;;;;;;13.45;5.63;;;6.40;93.30;;;;;;5012050;28;20624;-64
2021/11/28 03:43:52;;;;;;;15.05;6.60;;;6.50;93.30;;;;;;5010968;28;20028;-62
2021/11/28 03:46:17;;;;;;;12.32;5.80;;;6.40;93.30;;;;;;5025913;28;20036;-61
2021/11/28 03:48:43;;;;;;;14.50;6.45;;;6.40;93.30;;;;;;5013070;28;20029;-61
2021/11/28 03:51:08;;;;;;;14.10;6.15;;;6.40;93.30;;;;;;5012269;28;20028;-61
2021/11/28 03:53:34;;;;;;;21.13;5.78;;;6.40;93.30;;;;;;5034579;28;20430;-60
2021/11/28 03:56:03;;;;;;;16.55;6.43;;;6.40;93.30;;;;;;5043575;28;20630;-61
2021/11/28 03:58:29;;;;;;;14.63;5.70;;;6.40;93.30;;;;;;5058128;28;20024;-61
2021/11/28 04:00:55;;;;;;;17.52;5.78;;;6.40;93.30;;;;;;5011011;28;20040;-62
2021/11/28 04:03:21;;;;;;;15.07;5.53;;;6.40;93.30;;;;;;5014806;28;20055;-61
2021/11/28 04:05:46;;;;;;;15.38;6.30;;;6.40;93.30;;;;;;5011155;28;20040;-61
2021/11/28 04:08:12;;;;;;;18.02;6.32;;;6.30;93.30;;;;;;5043388;28;20132;-61
2021/11/28 04:10:37;;;;;;;12.23;5.22;;;6.40;93.30;;;;;;5027634;28;20029;-61
2021/11/28 04:13:03;;;;;;;18.00;6.47;;;6.40;93.30;;;;;;5047152;28;20047;-61
2021/11/28 04:15:29;;;;;;;11.85;6.03;;;6.40;93.30;;;;;;5031769;28;20033;-61
2021/11/28 04:17:54;;;;;;;15.27;5.90;;;6.30;93.30;;;;;;5014532;28;20048;-61
2021/11/28 04:20:20;;;;;;;14.18;5.72;;;6.40;93.30;;;;;;5047654;28;20031;-61
2021/11/28 04:22:45;;;;;;;9.65;5.28;;;6.30;93.20;;;;;;5014488;28;20104;-61
2021/11/28 04:25:11;;;;;;;10.30;5.43;;;6.30;93.20;;;;;;5014539;28;20082;-61
2021/11/28 04:27:37;;;;;;;15.30;5.47;;;6.30;93.20;;;;;;5029525;28;20037;-61
2021/11/28 04:30:04;;;;;;;10.00;5.10;;;6.30;93.20;;;;;;5029886;28;20143;-61
2021/11/28 04:32:29;;;;;;;9.43;4.72;;;6.30;93.20;;;;;;5031610;28;20025;-61
2021/11/28 04:34:55;;;;;;;12.15;4.95;;;6.30;93.30;;;;;;5014576;28;20021;-61
2021/11/28 04:37:21;;;;;;;11.95;5.47;;;6.30;93.20;;;;;;5028784;28;20094;-61
2021/11/28 04:39:47;;;;;;;9.50;4.78;;;6.30;93.20;;;;;;5029891;28;20029;-61
2021/11/28 04:42:13;;;;;;;9.77;5.05;;;6.30;93.20;;;;;;5032913;28;20028;-61
2021/11/28 04:44:38;;;;;;;10.57;5.53;;;6.30;93.20;;;;;;5014337;28;20028;-61
2021/11/28 04:47:04;;;;;;;9.27;4.50;;;6.30;93.20;;;;;;5014250;28;20025;-62
2021/11/28 04:49:30;;;;;;;12.40;5.85;;;6.30;93.20;;;;;;5014513;28;20046;-61
2021/11/28 04:51:55;;;;;;;10.98;5.75;;;6.30;93.20;;;;;;5026290;28;20086;-61
2021/11/28 04:54:21;;;;;;;11.23;5.30;;;6.30;93.20;;;;;;5029570;28;20128;-61
2021/11/28 04:56:46;;;;;;;13.30;5.20;;;6.30;93.50;;;;;;5028035;28;20047;-61
2021/11/28 04:59:12;;;;;;;11.25;5.20;;;6.30;93.20;;;;;;5027786;28;20082;-61
2021/11/28 05:01:37;;;;;;;11.13;4.95;;;6.30;93.20;;;;;;5011515;28;20070;-61
2021/11/28 05:04:03;;;;;;;11.13;4.50;;;6.20;93.20;;;;;;5010426;28;20047;-61
2021/11/28 05:06:29;;;;;;;13.25;5.22;;;6.30;93.20;;;;;;5012094;28;20052;-61
2021/11/28 05:08:54;;;;;;;9.48;5.32;;;6.20;93.20;;;;;;5028691;28;20112;-65
2021/11/28 05:11:20;;;;;;;10.02;5.10;;;6.20;93.20;;;;;;5033309;28;20083;-61
2021/11/28 05:13:45;;;;;;;10.93;4.55;;;6.20;93.20;;;;;;5044007;28;20086;-61
2021/11/28 05:16:11;;;;;;;10.60;5.07;;;6.20;93.30;;;;;;5010799;28;20103;-61
2021/11/28 05:18:37;;;;;;;11.70;4.82;;;6.20;93.20;;;;;;5025264;28;20040;-61
2021/11/28 05:21:02;;;;;;;10.57;4.85;;;6.20;93.30;;;;;;5012028;28;20032;-61
2021/11/28 05:23:28;;;;;;;14.00;5.35;;;6.20;93.20;;;;;;5012780;28;20443;-61
2021/11/28 05:25:53;;;;;;;11.02;4.93;;;6.20;93.20;;;;;;5030446;28;20036;-61
2021/11/28 05:28:19;;;;;;;11.75;5.15;;;6.20;93.20;;;;;;5012834;28;20032;-62
2021/11/28 05:30:44;;;;;;;10.05;4.25;;;6.20;93.20;;;;;;5013427;28;20411;-61
2021/11/28 05:33:10;;;;;;;12.57;4.97;;;6.20;93.20;;;;;;5014890;28;20507;-61
2021/11/28 05:35:35;;;;;;;12.05;4.97;;;6.20;93.20;;;;;;5014598;28;20033;-61
2021/11/28 05:38:01;;;;;;;14.93;5.28;;;6.20;93.20;;;;;;5047415;28;20021;-61
2021/11/28 05:40:27;;;;;;;10.95;5.15;;;6.20;93.20;;;;;;5046579;28;20581;-61
2021/11/28 05:42:53;;;;;;;11.35;4.40;;;6.20;93.30;;;;;;5030073;28;20113;-63
2021/11/28 05:45:20;;;;;;;8.23;4.18;;;6.20;93.20;;;;;;5029437;28;20051;-61
2021/11/28 05:47:46;;;;;;;10.15;4.70;;;6.20;93.30;;;;;;5047210;28;20032;-61
2021/11/28 05:50:12;;;;;;;11.93;4.13;;;6.20;93.30;;;;;;5047201;28;20313;-61
2021/11/28 05:52:38;;;;;;;74.75;7.70;;;6.20;93.30;;;;;;5045588;28;20630;-61
2021/11/28 05:55:04;;;;;;;33.38;6.32;;;6.20;93.20;;;;;;5029754;28;20032;-61
2021/11/28 05:57:29;;;;;;;32.13;6.68;;;6.30;93.30;;;;;;5030224;28;20036;-61
2021/11/28 05:59:55;;;;;;;27.98;6.70;;;6.20;93.30;;;;;;5014251;28;20073;-61
2021/11/28 06:02:20;;;;;;;31.48;5.43;;;6.30;93.30;;;;;;5046810;28;20526;-62
2021/11/28 06:04:46;;;;;;;35.15;6.50;;;6.20;93.30;;;;;;5013177;28;20045;-61
2021/11/28 06:07:11;;;;;;;25.65;6.88;;;6.20;93.30;;;;;;5012612;28;20025;-61
2021/11/28 06:09:37;;;;;;;24.05;5.40;;;6.20;93.30;;;;;;5012402;28;20032;-61
2021/11/28 06:12:03;;;;;;;22.92;5.88;;;6.20;93.30;;;;;;5047640;28;20040;-61
2021/11/28 06:14:28;;;;;;;21.58;6.32;;;6.20;93.30;;;;;;5031622;28;20094;-61
2021/11/28 06:16:54;;;;;;;27.10;5.65;;;6.20;93.50;;;;;;5013555;28;20490;-61
2021/11/28 06:19:20;;;;;;;20.73;5.45;;;6.20;93.60;;;;;;5027823;28;20104;-62
2021/11/28 06:21:45;;;;;;;29.63;6.07;;;6.30;93.60;;;;;;5027907;28;20029;-61
2021/11/28 06:24:11;;;;;;;30.67;5.93;;;6.20;93.50;;;;;;5046189;28;20036;-61
2021/11/28 06:26:36;;;;;;;15.55;5.00;;;6.20;93.50;;;;;;5028788;28;20036;-61
2021/11/28 06:29:02;;;;;;;19.40;5.13;;;6.20;93.50;;;;;;5047262;28;20028;-61
2021/11/28 06:31:27;;;;;;;16.10;4.63;;;6.20;93.50;;;;;;5011363;28;20032;-61
2021/11/28 06:33:53;;;;;;;33.22;6.05;;;6.20;93.50;;;;;;5027491;28;20482;-61
2021/11/28 06:36:19;;;;;;;53.20;8.60;;;6.20;93.50;;;;;;5044227;28;20036;-61
2021/11/28 06:38:44;;;;;;;89.13;11.60;;;6.20;93.60;;;;;;5027066;28;20025;-61
2021/11/28 06:41:10;;;;;;;234.93;19.05;;;6.20;93.60;;;;;;5029500;28;20035;-61
2021/11/28 06:43:35;;;;;;;158.45;13.45;;;6.20;93.60;;;;;;5029219;28;20024;-61
2021/11/28 06:46:02;;;;;;;109.15;12.23;;;6.20;93.60;;;;;;5028584;28;20475;-61
2021/11/28 06:48:27;;;;;;;131.00;13.95;;;6.20;93.50;;;;;;5011479;28;20039;-61
2021/11/28 06:50:53;;;;;;;157.13;14.48;;;6.30;93.50;;;;;;5013758;28;20036;-61
2021/11/28 06:53:18;;;;;;;149.65;15.00;;;6.30;93.60;;;;;;5013559;28;20058;-61
2021/11/28 06:55:44;;;;;;;119.57;13.30;;;6.30;93.60;;;;;;5029241;28;20032;-62
2021/11/28 06:58:09;;;;;;;170.32;15.70;;;6.30;93.70;;;;;;5027762;28;20524;-61
2021/11/28 07:00:35;;;;;;;151.27;15.13;;;6.30;93.60;;;;;;5044717;28;20029;-61
2021/11/28 07:03:00;;;;;;;125.88;13.05;;;6.30;93.60;;;;;;5011833;28;20071;-61
2021/11/28 07:05:26;;;;;;;95.57;11.82;;;6.30;93.70;;;;;;5046347;28;20025;-61
2021/11/28 07:07:51;;;;;;;104.93;12.07;;;6.30;93.60;;;;;;5012622;28;20025;-61
2021/11/28 07:10:18;;;;;;;120.85;12.57;;;6.30;93.60;;;;;;5011947;28;20087;-61
2021/11/28 07:12:44;;;;;;;95.28;11.25;;;6.30;93.60;;;;;;5011718;28;20134;-62
2021/11/28 07:15:10;;;;;;;94.50;11.80;;;6.30;93.60;;;;;;5011392;28;20407;-61
2021/11/28 07:17:36;;;;;;;106.25;11.32;;;6.30;93.60;;;;;;5011501;28;20036;-61
2021/11/28 07:20:02;;;;;;;89.63;11.35;;;6.30;93.60;;;;;;5027638;28;20020;-61
2021/11/28 07:22:28;;;;;;;98.60;10.57;;;6.30;93.60;;;;;;5028110;28;20024;-61
2021/11/28 07:24:53;;;;;;;84.00;10.82;;;6.30;93.60;;;;;;5044927;28;20032;-62
2021/11/28 07:27:19;;;;;;;79.38;10.30;;;6.30;93.60;;;;;;5009978;28;20028;-61
2021/11/28 07:29:44;;;;;;;99.85;11.68;;;6.30;93.60;;;;;;5012488;28;20048;-62
2021/11/28 07:32:10;;;;;;;84.03;9.77;;;6.30;93.60;;;;;;5028945;28;20040;-61
2021/11/28 07:34:35;;;;;;;96.10;11.15;;;6.30;93.60;;;;;;5027257;28;20029;-61
2021/11/28 07:37:01;;;;;;;76.15;10.55;;;6.50;93.70;;;;;;5058396;28;20478;-61
2021/11/28 07:39:26;;;;;;;72.20;9.68;;;6.30;93.60;;;;;;5026386;28;20029;-61
2021/11/28 07:41:53;;;;;;;83.03;11.60;;;6.30;93.60;;;;;;5012894;28;20102;-61
2021/11/28 07:44:19;;;;;;;73.97;10.80;;;6.30;93.60;;;;;;5012399;28;20119;-61
2021/11/28 07:46:44;;;;;;;63.92;9.05;;;6.30;93.70;;;;;;5015172;28;20119;-62
2021/11/28 07:49:10;;;;;;;90.93;10.30;;;6.30;93.70;;;;;;5031845;28;20040;-61
2021/11/28 07:51:35;;;;;;;54.40;8.80;;;6.30;93.60;;;;;;5031181;28;20058;-61
2021/11/28 07:54:01;;;;;;;54.83;8.55;;;6.30;93.60;;;;;;5016249;28;20082;-63
2021/11/28 07:56:27;;;;;;;81.97;8.43;;;6.30;93.50;;;;;;5049747;28;20029;-62
2021/11/28 07:58:53;;;;;;;67.93;7.68;;;6.30;93.50;;;;;;5033445;28;20103;-61
2021/11/28 08:01:18;;;;;;;52.28;8.55;;;6.30;93.50;;;;;;5046544;28;20035;-61
2021/11/28 08:03:44;;;;;;;59.35;8.32;;;6.30;93.50;;;;;;5016176;28;20434;-61
2021/11/28 08:06:09;;;;;;;61.13;9.20;;;6.30;93.60;;;;;;5046449;28;20470;-61
2021/11/28 08:08:35;;;;;;;79.97;8.90;;;6.30;93.50;;;;;;5048379;28;20472;-62
2021/11/28 08:11:01;;;;;;;58.42;7.72;;;6.30;93.50;;;;;;5049156;28;20058;-62
2021/11/28 08:13:26;;;;;;;67.25;8.65;;;6.30;93.50;;;;;;5032431;28;20089;-60
2021/11/28 08:15:52;;;;;;;68.85;10.55;;;6.30;93.50;;;;;;5014987;28;20028;-61
2021/11/28 08:18:17;;;;;;;83.25;9.48;;;6.30;93.50;;;;;;5028887;28;20639;-61
2021/11/28 08:20:43;;;;;;;55.20;9.48;;;6.30;93.50;;;;;;5010715;28;20072;-61
2021/11/28 08:23:09;;;;;;;40.58;7.82;;;6.30;93.60;;;;;;5016269;28;20940;-62
2021/11/28 08:25:34;;;;;;;82.63;10.05;;;6.30;93.60;;;;;;5015435;28;20048;-61
2021/11/28 08:28:01;;;;;;;51.85;8.75;;;6.30;93.50;;;;;;5013983;28;20062;-61
2021/11/28 08:30:26;;;;;;;73.65;8.32;;;6.30;93.50;;;;;;5031043;28;20024;-60
2021/11/28 08:32:52;;;;;;;56.58;8.85;;;6.30;93.50;;;;;;5013670;28;20058;-61
2021/11/28 08:35:18;;;;;;;83.75;8.18;;;6.30;93.40;;;;;;5013906;28;20457;-61
2021/11/28 08:37:44;;;;;;;58.15;7.90;;;6.30;93.40;;;;;;5015036;28;20537;-62
2021/11/28 08:40:11;;;;;;;59.92;7.38;;;6.30;93.40;;;;;;5029276;28;20526;-61
2021/11/28 08:42:36;;;;;;;42.97;6.90;;;6.30;93.40;;;;;;5031602;28;20040;-62
2021/11/28 08:45:04;;;;;;;48.08;7.15;;;6.30;93.40;;;;;;5029837;28;20531;-61
2021/11/28 08:47:29;;;;;;;52.15;8.18;;;6.30;93.40;;;;;;5047417;28;20044;-62
2021/11/28 08:49:55;;;;;;;53.85;7.85;;;6.30;93.40;;;;;;5067067;28;20031;-61
2021/11/28 08:52:20;;;;;;;51.00;6.65;;;6.30;93.40;;;;;;5033110;28;20528;-62
2021/11/28 08:54:46;;;;;;;42.20;7.05;;;6.30;93.40;;;;;;5013400;28;20016;-61
2021/11/28 08:57:11;;;;;;;37.72;6.55;;;6.30;93.50;;;;;;5028295;28;20025;-62
2021/11/28 08:59:37;;;;;;;44.33;6.30;;;6.30;93.40;;;;;;5028841;28;20029;-61
2021/11/28 09:02:02;;;;;;;48.03;6.72;;;6.30;93.40;;;;;;5029778;28;20158;-62
2021/11/28 09:04:28;;;;;;;47.13;7.45;;;6.40;93.40;;;;;;5009979;28;20636;-61
2021/11/28 09:06:53;;;;;;;34.55;7.40;;;6.40;93.40;;;;;;5028677;28;20123;-61
2021/11/28 09:09:19;;;;;;;45.15;7.57;;;6.30;93.40;;;;;;5027903;28;20040;-61
2021/11/28 09:11:45;;;;;;;32.92;6.22;;;6.40;93.40;;;;;;5045918;28;20048;-62
2021/11/28 09:14:11;;;;;;;36.65;7.05;;;6.40;93.30;;;;;;5012520;28;20550;-61
2021/11/28 09:16:37;;;;;;;41.13;6.32;;;6.40;93.30;;;;;;5013527;28;20078;-60
2021/11/28 09:19:07;;;;;;;46.08;7.63;;;6.40;93.30;;;;;;5028072;28;20698;-61
2021/11/28 09:21:33;;;;;;;48.90;6.97;;;6.40;93.30;;;;;;5014276;28;20040;-61
2021/11/28 09:26:43;;;;;;;42.08;7.47;;;6.40;93.40;;;;;;5033723;28;20066;-60
2021/11/28 09:29:08;;;;;;;47.22;6.75;;;6.40;93.40;;;;;;5046783;28;20493;-61
2021/11/28 09:31:34;;;;;;;37.63;6.88;;;6.40;93.40;;;;;;5012289;28;20021;-61
2021/11/28 09:34:01;;;;;;;55.45;7.63;;;6.50;93.40;;;;;;5029463;28;20040;-62
2021/11/28 09:36:27;;;;;;;54.13;7.35;;;6.50;93.40;;;;;;5027628;28;20134;-62
2021/11/28 09:38:53;;;;;;;43.88;7.60;;;6.40;93.50;;;;;;5028228;28;20028;-62
2021/11/28 09:41:19;;;;;;;62.58;8.70;;;6.50;93.50;;;;;;5026154;28;20668;-62
2021/11/28 09:43:48;;;;;;;74.18;8.88;;;6.60;93.70;;;;;;5012991;28;20071;-62
2021/11/28 09:46:14;;;;;;;61.63;8.93;;;6.60;93.60;;;;;;5028487;28;20175;-62
2021/11/28 09:48:39;;;;;;;64.88;8.57;;;6.60;93.80;;;;;;5028166;28;20111;-61
2021/11/28 09:51:07;;;;;;;59.33;9.80;;;6.60;93.70;;;;;;5011336;28;20471;-62
2021/11/28 09:53:32;;;;;;;76.10;8.80;;;6.60;93.70;;;;;;5030695;28;20614;-61
2021/11/28 09:55:58;;;;;;;77.50;9.90;;;6.70;93.80;;;;;;5026805;28;20085;-62
2021/11/28 09:58:25;;;;;;;64.57;9.75;;;6.70;93.80;;;;;;5024532;28;20042;-61
2021/11/28 10:00:50;;;;;;;91.18;11.60;;;6.70;93.90;;;;;;5010754;28;20024;-61
2021/11/28 10:03:16;;;;;;;81.90;9.88;;;6.80;93.90;;;;;;5041342;28;20047;-61
2021/11/28 10:05:42;;;;;;;78.57;11.10;;;6.80;94.00;;;;;;5023341;28;20036;-62
2021/11/28 10:08:08;;;;;;;74.45;10.93;;;6.80;94.00;;;;;;5025783;28;20460;-61
2021/11/28 10:10:34;;;;;;;89.70;11.85;;;6.80;94.00;;;;;;5013932;28;20044;-61
2021/11/28 10:13:00;;;;;;;107.03;12.05;;;6.90;94.20;;;;;;5044292;28;20021;-62
2021/11/28 10:15:27;;;;;;;141.90;14.48;;;6.90;94.20;;;;;;5024873;28;20020;-62
2021/11/28 10:17:53;;;;;;;185.57;15.55;;;6.90;94.20;;;;;;5009047;28;20147;-62
2021/11/28 10:20:23;;;;;;;213.63;20.60;;;6.90;94.40;;;;;;5061860;28;20329;-61
2021/11/28 10:22:49;;;;;;;156.73;16.00;;;7.00;94.40;;;;;;5027846;28;20020;-61
2021/11/28 10:25:16;;;;;;;130.60;15.52;;;7.00;94.40;;;;;;5060072;28;20027;-61
2021/11/28 10:27:45;;;;;;;154.30;16.20;;;7.10;94.50;;;;;;5024449;28;20040;-62
2021/11/28 10:30:16;;;;;;;161.02;16.02;;;7.20;94.70;;;;;;5058765;28;20064;-61
2021/11/28 10:32:43;;;;;;;125.68;14.95;;;7.20;94.70;;;;;;5023464;28;20052;-62
2021/11/28 10:35:10;;;;;;;146.30;16.30;;;7.20;94.70;;;;;;5015421;28;20426;-62
2021/11/28 10:37:38;;;;;;;128.75;15.95;;;7.30;94.80;;;;;;5023656;28;20021;-62
2021/11/28 10:40:05;;;;;;;165.57;16.50;;;7.40;95.00;;;;;;5026129;28;20046;-61
2021/11/28 10:42:32;;;;;;;203.15;20.08;;;7.40;94.90;;;;;;5009302;28;20122;-61
2021/11/28 10:45:03;;;;;;;169.85;19.15;;;7.50;95.00;;;;;;5015514;28;20473;-62
2021/11/28 10:47:36;;;;;;;164.93;17.85;;;7.60;95.00;;;;;;5040748;28;20029;-62
2021/11/28 10:50:16;;;;;;;159.60;18.10;;;7.60;94.90;;;;;;5030134;28;20059;-61
2021/11/28 10:52:42;;;;;;;195.00;21.92;;;7.70;95.00;;;;;;5007133;28;20025;-61
2021/11/28 10:55:28;;;;;;;195.52;22.35;;;7.70;94.90;;;;;;5006409;28;20522;-61
2021/11/28 10:58:13;;;;;;;166.48;18.83;;;7.70;94.90;;;;;;5022144;28;20419;-61
2021/11/28 11:01:01;;;;;;;207.40;22.40;;;7.80;94.80;;;;;;5040439;28;20419;-62
2021/11/28 11:03:28;;;;;;;225.60;23.92;;;7.80;94.80;;;;;;5021325;28;20036;-61
2021/11/28 11:06:11;;;;;;;209.10;24.92;;;7.80;94.80;;;;;;5021639;28;20051;-62
2021/11/28 11:08:37;;;;;;;208.48;24.80;;;7.90;94.90;;;;;;5009830;28;20044;-62
2021/11/28 11:11:08;;;;;;;240.55;25.88;;;8.00;94.80;;;;;;5040331;28;20576;-61
2021/11/28 11:13:34;;;;;;;240.82;25.17;;;8.00;94.70;;;;;;5025152;28;20392;-60
2021/11/28 11:16:02;;;;;;;254.63;26.27;;;8.10;94.80;;;;;;5026860;28;20016;-62
2021/11/28 11:18:28;;;;;;;273.48;29.88;;;8.10;94.80;;;;;;5024500;28;20031;-62
2021/11/28 11:21:02;;;;;;;264.35;29.88;;;8.10;94.80;;;;;;5023417;28;20029;-62
2021/11/28 11:23:42;;;;;;;274.27;28.80;;;8.20;94.80;;;;;;5026065;28;20044;-62
2021/11/28 11:26:14;;;;;;;258.30;28.27;;;8.20;94.70;;;;;;5026479;28;20051;-62
2021/11/28 11:29:02;;;;;;;314.13;31.75;;;8.20;94.80;;;;;;5046975;28;20040;-62
2021/11/28 11:31:28;;;;;;;292.38;30.23;;;8.30;94.80;;;;;;5043760;28;20047;-61
2021/11/28 11:33:54;;;;;;;269.58;31.00;;;8.30;94.80;;;;;;5040002;28;20070;-62
2021/11/28 11:36:19;;;;;;;277.90;30.42;;;8.30;94.90;;;;;;5026177;28;20028;-62
2021/11/28 11:38:45;;;;;;;274.05;32.20;;;8.40;94.80;;;;;;5011600;28;20040;-62
2021/11/28 11:41:10;;;;;;;290.00;32.33;;;8.40;94.90;;;;;;5013465;28;20069;-62
2021/11/28 11:43:38;;;;;;;280.70;31.83;;;8.40;94.80;;;;;;5042840;28;20020;-62
2021/11/28 11:46:08;;;;;;;270.00;30.75;;;8.40;94.90;;;;;;5026060;28;20107;-62
2021/11/28 11:48:34;;;;;;;295.90;31.50;;;8.50;94.90;;;;;;5025598;28;20105;-62
2021/11/28 11:51:01;;;;;;;280.40;28.65;;;8.50;94.90;;;;;;5003920;28;20655;-62
2021/11/28 11:53:27;;;;;;;277.30;32.10;;;8.50;94.80;;;;;;5025354;28;20044;-62
2021/11/28 11:55:53;;;;;;;286.50;30.60;;;8.60;94.80;;;;;;5025407;28;20076;-61
2021/11/28 11:58:34;;;;;;;249.88;31.58;;;8.60;94.70;;;;;;5008501;28;20025;-62
2021/11/28 12:01:15;;;;;;;292.33;31.80;;;8.70;94.70;;;;;;5057580;28;20633;-62
2021/11/28 12:03:50;;;;;;;307.10;33.83;;;8.70;94.70;;;;;;5039567;28;20048;-62
2021/11/28 12:06:15;;;;;;;323.80;34.50;;;8.70;94.70;;;;;;5010261;28;20029;-63
2021/11/28 12:08:51;;;;;;;336.33;38.67;;;8.80;94.80;;;;;;5024628;28;20094;-62
2021/11/28 12:11:18;;;;;;;346.88;35.00;;;8.80;94.80;;;;;;5009033;28;20059;-62
2021/11/28 12:13:44;;;;;;;322.27;37.15;;;8.90;94.80;;;;;;5026066;28;20033;-62
2021/11/28 12:16:17;;;;;;;293.50;34.95;;;8.90;94.80;;;;;;5041674;28;20036;-61
2021/11/28 12:18:44;;;;;;;280.90;34.10;;;8.90;94.80;;;;;;5058124;28;20020;-62
2021/11/28 12:21:31;;;;;;;330.70;37.20;;;8.90;94.80;;;;;;5008279;28;20029;-62
2021/11/28 12:24:19;;;;;;;307.65;35.38;;;9.00;94.70;;;;;;5044566;28;20095;-62
2021/11/28 12:26:52;;;;;;;263.88;34.88;;;9.00;94.80;;;;;;5042186;28;20047;-62
2021/11/28 12:29:21;;;;;;;344.70;37.95;;;9.00;94.70;;;;;;5011694;28;20048;-61
2021/11/28 12:32:12;;;;;;;355.17;38.60;;;9.10;94.70;;;;;;5028917;28;20027;-62
2021/11/28 12:34:48;;;;;;;318.13;35.85;;;9.10;94.70;;;;;;5015840;28;20059;-61
2021/11/28 12:37:25;;;;;;;380.27;42.00;;;9.10;94.60;;;;;;5029165;28;20039;-62
2021/11/28 12:39:51;;;;;;;301.52;36.08;;;9.10;94.60;;;;;;5030606;28;20051;-63
2021/11/28 12:42:21;;;;;;;326.77;36.63;;;9.10;94.60;;;;;;5015375;28;20075;-62